Aérodrome :
LOGIN :

S'inscrire | Disclaimer

   EN    FR    IT 

 










Légende :    VFR   VFR Marginal   IFR   IFR Intensif   IFR Très Intensif
Visi : 
Plafond : 
>= 8 km
>= 3000ft
5 à 8 km
1000 à 3000 ft
1500m à 5 km
500 à 1000 ft
800 à 1500m
200 à 500 ft
< 800m
< 200 ft
Symboles :   Orages  Brouillard  Fortes neiges  Fortes précipitations  Vent > 20 kt
SIGMETs :   Divers  Orages  Givrage  Turbulence  Onde Orograph.  Cendres Volcan.






- Altitude de l'aérodrome : 489 ft
- Code IATA : GDN


EPGD - Gdansk

DERNIER METAR :
  • 172330Z 18003KT 9999 FEW024 BKN041 12/12 Q1014

METARs EXPIRÉS :
  • 172300Z 23004KT 9999 FEW023 BKN036 12/12 Q1014
  • 172230Z 23005KT 180V250 9999 FEW024 BKN048 12/12 Q1013
  • 172200Z 23007KT 9999 -SHRA FEW011 BKN047 13/12 Q1014
  • 172130Z 22006KT 9999 FEW012 BKN037 13/12 Q1014
  • 172100Z 22005KT 9999 FEW029 BKN038 13/12 Q1014

TAF TAF EPGD
Valide du 18 à 00h jusqu'au 19 à 00h UTC


172330Z 1800/1824 20005KT 9999 BKN035
PROB30 1802/1807 BKN007
TEMPO 1808/1812 4000 RA BR
PROB40 1818/1824 BKN007



MET'MAP, la Météo Aéronautique d'un coup d'oeil ! - Copyright ORBIFLY Décembre 2007 - Disclaimer

ORBIFLY MET'MAP TEAM :

Programmation & Développement : Alexandra Zaïnal
Conception & Développement : Baudouin d'Aumeries
Co-Programmation & Développement : Marc-Olivier Méhu
Soutien technique & logistique : Manuel Goepfert

Contact : metmap@orbifly.com




SOURCES & CREDITS :

   NOAA